createdAt,value
2023-03-02T00:00:57.679Z,5.90
2023-03-02T00:01:57.700Z,5.70
2023-03-02T00:02:57.742Z,5.70
2023-03-02T00:03:57.769Z,5.60
2023-03-02T00:04:57.748Z,5.50
2023-03-02T00:05:57.773Z,5.60
2023-03-02T00:06:57.781Z,5.80
2023-03-02T00:07:57.810Z,5.30
2023-03-02T00:08:57.811Z,5.40
2023-03-02T00:09:57.821Z,5.30
2023-03-02T00:10:57.842Z,5.70
2023-03-02T00:11:57.870Z,5.20
2023-03-02T00:12:57.869Z,5.50
2023-03-02T00:13:57.886Z,5.50
2023-03-02T00:14:57.913Z,5.50
2023-03-02T00:15:57.946Z,5.70
2023-03-02T00:16:57.935Z,5.30
2023-03-02T00:17:57.960Z,5.30
2023-03-02T00:18:57.984Z,5.20
2023-03-02T00:19:57.992Z,5.40
2023-03-02T00:20:58.013Z,5.00
2023-03-02T00:21:58.086Z,5.40
2023-03-02T00:22:58.041Z,5.10
2023-03-02T00:23:58.063Z,5.20
2023-03-02T00:24:58.090Z,5.40
2023-03-02T00:25:58.092Z,5.10
2023-03-02T00:26:58.109Z,5.50
2023-03-02T00:27:58.135Z,5.40
2023-03-02T00:28:58.142Z,5.50
2023-03-02T00:29:58.158Z,5.40
2023-03-02T00:30:58.224Z,5.40
2023-03-02T00:31:58.244Z,4.90
2023-03-02T00:32:58.211Z,5.30
2023-03-02T00:33:58.220Z,5.10
2023-03-02T00:34:58.234Z,5.00
2023-03-02T00:35:58.332Z,5.30
2023-03-02T00:36:58.269Z,5.20
2023-03-02T00:37:58.300Z,5.10
2023-03-02T00:38:58.296Z,4.80
2023-03-02T00:39:58.309Z,4.90
2023-03-02T00:40:58.325Z,5.30
2023-03-02T00:41:58.343Z,5.00
2023-03-02T00:42:58.365Z,4.90
2023-03-02T00:43:58.384Z,4.90
2023-03-02T00:44:58.394Z,4.80
2023-03-02T00:45:58.411Z,4.80
2023-03-02T00:46:58.475Z,4.80
2023-03-02T00:47:58.447Z,4.80
2023-03-02T00:48:58.464Z,4.70
2023-03-02T00:49:58.471Z,4.90
2023-03-02T00:50:58.490Z,4.80
2023-03-02T00:51:58.505Z,4.80
2023-03-02T00:52:58.522Z,4.90
2023-03-02T00:53:58.562Z,4.90
2023-03-02T00:54:58.562Z,4.80
2023-03-02T00:55:58.578Z,5.00
2023-03-02T00:56:58.590Z,4.90
2023-03-02T00:57:58.610Z,4.50
2023-03-02T00:58:58.620Z,4.70
2023-03-02T00:59:58.642Z,4.80
2023-03-02T01:00:58.653Z,4.90
2023-03-02T01:01:58.772Z,4.70
2023-03-02T01:02:58.806Z,4.70
2023-03-02T01:03:58.709Z,4.70
2023-03-02T01:04:58.731Z,4.80
2023-03-02T01:05:58.759Z,4.60
2023-03-02T01:06:58.763Z,4.60
2023-03-02T01:07:58.773Z,4.70
2023-03-02T01:08:58.795Z,4.60
2023-03-02T01:09:58.827Z,4.50
2023-03-02T01:10:58.823Z,4.40
2023-03-02T01:11:58.845Z,4.70
2023-03-02T01:12:58.865Z,4.50
2023-03-02T01:13:58.869Z,4.40
2023-03-02T01:14:58.888Z,4.80
2023-03-02T01:15:58.971Z,4.50
2023-03-02T01:16:58.925Z,4.50
2023-03-02T01:17:58.936Z,4.30
2023-03-02T01:18:58.954Z,4.60
2023-03-02T01:19:58.994Z,4.70
2023-03-02T01:20:58.985Z,4.60
2023-03-02T01:21:59.009Z,4.40
2023-03-02T01:22:59.025Z,4.40
2023-03-02T01:23:59.035Z,4.50
2023-03-02T01:24:59.051Z,4.60
2023-03-02T01:25:59.217Z,4.60
2023-03-02T01:26:59.093Z,4.50
2023-03-02T01:27:59.104Z,4.40
2023-03-02T01:28:59.126Z,4.40
2023-03-02T01:29:59.144Z,4.20
2023-03-02T01:30:59.151Z,4.30
2023-03-02T01:31:59.270Z,4.70
2023-03-02T01:32:59.182Z,4.20
2023-03-02T01:33:59.200Z,4.50
2023-03-02T01:34:59.224Z,4.60
2023-03-02T01:35:59.342Z,4.30
2023-03-02T01:36:59.255Z,4.50
2023-03-02T01:37:59.270Z,4.20
2023-03-02T01:38:59.291Z,4.30
2023-03-02T01:39:59.300Z,4.40
2023-03-02T01:40:59.324Z,4.60
2023-03-02T01:41:59.365Z,4.60
2023-03-02T01:42:59.356Z,4.30
2023-03-02T01:43:59.361Z,4.60
2023-03-02T01:44:59.376Z,4.50
2023-03-02T01:45:59.485Z,4.30
2023-03-02T01:46:59.419Z,4.20
2023-03-02T01:47:59.426Z,4.10
2023-03-02T01:48:59.458Z,4.20
2023-03-02T01:49:59.464Z,4.30
2023-03-02T01:50:59.489Z,4.30
2023-03-02T01:51:59.497Z,4.20
2023-03-02T01:52:59.513Z,4.20
2023-03-02T01:53:59.521Z,4.20
2023-03-02T01:54:59.546Z,4.40
2023-03-02T01:55:59.584Z,4.30
2023-03-02T01:56:59.578Z,4.40
2023-03-02T01:57:59.688Z,4.40
2023-03-02T01:58:59.606Z,4.30
2023-03-02T01:59:59.678Z,4.20
2023-03-02T02:00:59.699Z,4.30
2023-03-02T02:01:59.660Z,4.10
2023-03-02T02:02:59.676Z,4.30
2023-03-02T02:03:59.770Z,4.00
2023-03-02T02:04:59.700Z,3.60
2023-03-02T02:05:59.719Z,4.40
2023-03-02T02:06:59.742Z,4.30
2023-03-02T02:07:59.751Z,4.30
2023-03-02T02:08:59.775Z,4.40
2023-03-02T02:09:59.793Z,4.30
2023-03-02T02:10:59.799Z,4.10
2023-03-02T02:11:59.814Z,4.20
2023-03-02T02:12:59.830Z,4.40
2023-03-02T02:13:59.877Z,4.30
2023-03-02T02:14:59.870Z,4.20
2023-03-02T02:15:59.878Z,4.00
2023-03-02T02:16:59.965Z,4.10
2023-03-02T02:17:59.925Z,4.30
2023-03-02T02:18:59.927Z,4.00
2023-03-02T02:19:59.959Z,3.90
2023-03-02T02:20:59.960Z,4.60
2023-03-02T02:21:59.989Z,4.00
2023-03-02T02:22:59.995Z,4.40
2023-03-02T02:24:00.012Z,4.20
2023-03-02T02:25:00.032Z,4.10
2023-03-02T02:26:00.055Z,4.30
2023-03-02T02:27:00.060Z,4.20
2023-03-02T02:28:00.120Z,4.00
2023-03-02T02:29:00.099Z,4.10
2023-03-02T02:30:00.169Z,3.80
2023-03-02T02:31:00.134Z,3.80
2023-03-02T02:32:00.527Z,4.20
2023-03-02T02:33:00.163Z,4.20
2023-03-02T02:34:00.177Z,4.30
2023-03-02T02:35:00.188Z,4.10
2023-03-02T02:36:00.264Z,3.80
2023-03-02T02:37:00.220Z,4.00
2023-03-02T02:38:00.244Z,3.90
2023-03-02T02:39:00.262Z,3.90
2023-03-02T02:40:00.277Z,4.00
2023-03-02T02:41:00.291Z,4.30
2023-03-02T02:42:00.309Z,3.90
2023-03-02T02:43:00.325Z,3.90
2023-03-02T02:44:00.332Z,4.40
2023-03-02T02:45:00.355Z,4.30
2023-03-02T02:46:00.448Z,4.20
2023-03-02T02:47:00.382Z,4.20
2023-03-02T02:48:00.423Z,3.80
2023-03-02T02:49:00.413Z,4.00
2023-03-02T02:50:00.440Z,4.00
2023-03-02T02:51:00.716Z,4.00
2023-03-02T02:52:00.471Z,3.80
2023-03-02T02:53:00.478Z,4.20
2023-03-02T02:54:00.503Z,4.10
2023-03-02T02:55:00.540Z,4.20
2023-03-02T02:56:00.530Z,3.90
2023-03-02T02:57:00.555Z,4.00
2023-03-02T02:58:00.566Z,4.10
2023-03-02T02:59:00.590Z,4.00
2023-03-02T03:00:00.601Z,4.20
2023-03-02T03:01:00.664Z,4.00
2023-03-02T03:02:00.741Z,4.00
2023-03-02T03:03:00.647Z,4.10
2023-03-02T03:04:00.684Z,3.90
2023-03-02T03:05:00.726Z,4.00
2023-03-02T03:06:00.696Z,4.10
2023-03-02T03:07:00.708Z,3.80
2023-03-02T03:08:00.763Z,4.00
2023-03-02T03:09:00.770Z,4.00
2023-03-02T03:10:00.798Z,4.20
2023-03-02T03:11:00.770Z,4.10
2023-03-02T03:12:00.798Z,4.00
2023-03-02T03:13:00.817Z,4.10
2023-03-02T03:14:00.834Z,3.90
2023-03-02T03:15:00.844Z,4.00
2023-03-02T03:16:00.858Z,4.30
2023-03-02T03:17:00.918Z,4.00
2023-03-02T03:18:00.917Z,4.00
2023-03-02T03:19:00.908Z,3.90
2023-03-02T03:20:00.920Z,4.00
2023-03-02T03:21:00.937Z,4.00
2023-03-02T03:22:00.960Z,3.80
2023-03-02T03:23:00.987Z,3.90
2023-03-02T03:24:00.979Z,4.20
2023-03-02T03:25:00.995Z,4.30
2023-03-02T03:26:01.023Z,3.90
2023-03-02T03:27:01.033Z,4.10
2023-03-02T03:28:01.038Z,4.10
2023-03-02T03:29:01.061Z,4.20
2023-03-02T03:30:01.090Z,3.80
2023-03-02T03:31:01.120Z,3.80
2023-03-02T03:32:01.168Z,3.90
2023-03-02T03:33:01.130Z,3.90
2023-03-02T03:34:01.236Z,3.70
2023-03-02T03:35:01.154Z,3.90
2023-03-02T03:36:01.282Z,4.00
2023-03-02T03:37:01.187Z,4.00
2023-03-02T03:38:01.208Z,4.00
2023-03-02T03:39:01.253Z,4.20
2023-03-02T03:40:01.240Z,4.40
2023-03-02T03:41:01.255Z,4.20
2023-03-02T03:42:01.269Z,3.90
2023-03-02T03:43:01.329Z,3.80
2023-03-02T03:44:01.299Z,4.20
2023-03-02T03:45:01.384Z,3.90
2023-03-02T03:46:01.359Z,3.80
2023-03-02T03:47:01.344Z,3.90
2023-03-02T03:48:01.359Z,3.70
2023-03-02T03:49:01.382Z,3.70
2023-03-02T03:50:01.435Z,3.80
2023-03-02T03:51:01.414Z,3.90
2023-03-02T03:52:01.465Z,3.80
2023-03-02T03:53:03.736Z,4.10
2023-03-02T03:54:01.458Z,4.00
2023-03-02T03:55:01.580Z,4.00
2023-03-02T03:56:01.492Z,4.10
2023-03-02T03:57:01.501Z,3.90
2023-03-02T03:58:01.530Z,4.10
2023-03-02T03:59:01.533Z,3.90
2023-03-02T04:00:01.553Z,4.40
2023-03-02T04:01:01.577Z,4.00
2023-03-02T04:02:01.594Z,4.30
2023-03-02T04:03:01.605Z,4.10
2023-03-02T04:04:01.612Z,3.90
2023-03-02T04:05:01.637Z,3.90
2023-03-02T04:06:01.675Z,4.10
2023-03-02T04:07:01.661Z,3.90
2023-03-02T04:08:01.677Z,3.90
2023-03-02T04:09:01.701Z,4.10
2023-03-02T04:10:01.716Z,4.00
2023-03-02T04:11:01.726Z,4.10
2023-03-02T04:12:01.753Z,3.90
2023-03-02T04:13:01.757Z,4.10
2023-03-02T04:14:01.776Z,4.00
2023-03-02T04:15:01.803Z,3.90
2023-03-02T04:16:01.926Z,3.90
2023-03-02T04:17:01.823Z,3.80
2023-03-02T04:18:01.841Z,4.00
2023-03-02T04:19:01.852Z,3.90
2023-03-02T04:20:01.880Z,4.00
2023-03-02T04:21:01.892Z,4.00
2023-03-02T04:22:01.925Z,4.20
2023-03-02T04:23:01.919Z,4.10
2023-03-02T04:24:01.943Z,3.90
2023-03-02T04:25:01.955Z,4.20
2023-03-02T04:26:01.971Z,3.90
2023-03-02T04:27:01.989Z,4.20
2023-03-02T04:28:02.036Z,3.80
2023-03-02T04:29:02.023Z,4.10
2023-03-02T04:30:02.041Z,3.90
2023-03-02T04:31:02.113Z,3.80
2023-03-02T04:32:02.103Z,4.00
2023-03-02T04:33:02.123Z,3.90
2023-03-02T04:34:02.110Z,3.90
2023-03-02T04:35:02.124Z,3.80
2023-03-02T04:36:02.228Z,3.90
2023-03-02T04:37:02.160Z,3.90
2023-03-02T04:38:02.213Z,3.90
2023-03-02T04:39:02.192Z,3.80
2023-03-02T04:40:02.211Z,3.80
2023-03-02T04:41:02.231Z,3.80
2023-03-02T04:42:02.236Z,3.90
2023-03-02T04:43:02.250Z,3.90
2023-03-02T04:44:02.269Z,3.80
2023-03-02T04:45:02.284Z,3.60
2023-03-02T04:46:02.313Z,3.60
2023-03-02T04:47:02.337Z,3.60
2023-03-02T04:48:02.331Z,3.70
2023-03-02T04:49:02.360Z,3.60
2023-03-02T04:50:02.416Z,3.80
2023-03-02T04:51:02.395Z,3.90
2023-03-02T04:52:02.418Z,3.80
2023-03-02T04:53:02.453Z,3.70
2023-03-02T04:54:02.465Z,3.70
2023-03-02T04:55:02.445Z,3.70
2023-03-02T04:56:02.464Z,3.60
2023-03-02T04:57:02.485Z,3.60
2023-03-02T04:58:02.501Z,3.70
2023-03-02T04:59:02.509Z,3.80
2023-03-02T05:00:02.534Z,3.70
2023-03-02T05:01:02.546Z,3.50
2023-03-02T05:02:02.603Z,3.80
2023-03-02T05:03:02.574Z,3.70
2023-03-02T05:04:03.181Z,3.60
2023-03-02T05:05:02.626Z,3.50
2023-03-02T05:06:02.628Z,3.60
2023-03-02T05:07:02.639Z,3.70
2023-03-02T05:08:02.659Z,3.70
2023-03-02T05:09:02.669Z,3.70
2023-03-02T05:10:02.723Z,3.70
2023-03-02T05:11:02.714Z,3.20
2023-03-02T05:12:02.730Z,3.70
2023-03-02T05:13:02.739Z,3.80
2023-03-02T05:14:02.766Z,3.70
2023-03-02T05:15:02.766Z,3.70
2023-03-02T05:16:02.894Z,3.60
2023-03-02T05:17:02.806Z,3.70
2023-03-02T05:18:02.812Z,3.80
2023-03-02T05:19:02.837Z,3.70
2023-03-02T05:20:02.848Z,3.80
2023-03-02T05:21:02.858Z,3.40
2023-03-02T05:22:02.884Z,3.70
2023-03-02T05:23:02.900Z,3.50
2023-03-02T05:24:02.916Z,3.60
2023-03-02T05:25:02.940Z,3.50
2023-03-02T05:26:02.968Z,3.30
2023-03-02T05:27:02.956Z,3.60
2023-03-02T05:28:02.979Z,3.50
2023-03-02T05:29:03.005Z,3.40
2023-03-02T05:30:03.004Z,3.40
2023-03-02T05:31:03.071Z,3.40
2023-03-02T05:32:03.057Z,3.50
2023-03-02T05:33:03.061Z,3.40
2023-03-02T05:34:03.068Z,3.40
2023-03-02T05:35:03.085Z,3.50
2023-03-02T05:36:03.138Z,3.30
2023-03-02T05:37:03.133Z,3.50
2023-03-02T05:38:03.135Z,3.70
2023-03-02T05:39:03.148Z,3.40
2023-03-02T05:40:03.163Z,3.60
2023-03-02T05:41:03.179Z,3.50
2023-03-02T05:42:03.265Z,3.40
2023-03-02T05:43:03.221Z,3.40
2023-03-02T05:44:03.236Z,3.60
2023-03-02T05:45:03.253Z,3.50
2023-03-02T05:46:03.266Z,3.40
2023-03-02T05:47:03.329Z,3.70
2023-03-02T05:48:03.312Z,3.40
2023-03-02T05:49:03.307Z,3.50
2023-03-02T05:50:03.322Z,3.50
2023-03-02T05:51:03.345Z,3.50
2023-03-02T05:52:03.354Z,3.20
2023-03-02T05:53:03.380Z,3.50
2023-03-02T05:54:03.386Z,3.70
2023-03-02T05:55:03.408Z,3.70
2023-03-02T05:56:03.452Z,3.50
2023-03-02T05:57:03.435Z,3.50
2023-03-02T05:58:03.473Z,3.80
2023-03-02T05:59:03.465Z,3.30
2023-03-02T06:00:03.489Z,3.60
2023-03-02T06:01:03.504Z,3.50
2023-03-02T06:02:03.572Z,3.70
2023-03-02T06:03:03.615Z,3.60
2023-03-02T06:04:03.549Z,3.70
2023-03-02T06:05:03.561Z,3.30
2023-03-02T06:06:03.573Z,3.40
2023-03-02T06:07:03.599Z,3.80
2023-03-02T06:08:03.608Z,3.40
2023-03-02T06:09:03.632Z,3.30
2023-03-02T06:10:03.646Z,3.40
2023-03-02T06:11:03.656Z,3.40
2023-03-02T06:12:03.689Z,3.40
2023-03-02T06:13:03.697Z,3.40
2023-03-02T06:14:03.734Z,3.40
2023-03-02T06:15:03.742Z,3.80
2023-03-02T06:16:03.853Z,3.60
2023-03-02T06:17:03.761Z,3.40
2023-03-02T06:18:03.800Z,3.80
2023-03-02T06:19:03.790Z,3.40
2023-03-02T06:20:03.810Z,3.40
2023-03-02T06:21:03.813Z,3.50
2023-03-02T06:22:03.844Z,3.60
2023-03-02T06:23:03.852Z,3.40
2023-03-02T06:24:03.868Z,3.40
2023-03-02T06:25:03.883Z,3.50
2023-03-02T06:26:03.890Z,3.50
2023-03-02T06:27:03.913Z,3.70
2023-03-02T06:28:03.930Z,3.60
2023-03-02T06:29:03.946Z,3.60
2023-03-02T06:30:03.981Z,3.50
2023-03-02T06:31:03.978Z,3.70
2023-03-02T06:32:04.159Z,3.60
2023-03-02T06:33:04.014Z,3.60
2023-03-02T06:34:04.024Z,3.60
2023-03-02T06:35:04.111Z,3.40
2023-03-02T06:36:04.203Z,3.70
2023-03-02T06:37:04.075Z,3.70
2023-03-02T06:38:04.083Z,3.70
2023-03-02T06:39:04.110Z,3.50
2023-03-02T06:40:04.112Z,3.80
2023-03-02T06:41:04.129Z,3.90
2023-03-02T06:42:04.166Z,3.40
2023-03-02T06:43:04.562Z,4.00
2023-03-02T06:44:04.179Z,3.80
2023-03-02T06:45:04.201Z,3.80
2023-03-02T06:46:04.434Z,3.80
2023-03-02T06:47:04.227Z,3.90
2023-03-02T06:48:04.255Z,3.70
2023-03-02T06:49:04.257Z,4.00
2023-03-02T06:50:04.282Z,3.70
2023-03-02T06:51:04.294Z,3.60
2023-03-02T06:52:04.304Z,3.80
2023-03-02T06:53:04.322Z,3.80
2023-03-02T06:54:04.338Z,4.10
2023-03-02T06:55:04.367Z,3.90
2023-03-02T06:56:04.409Z,3.80
2023-03-02T06:57:04.392Z,3.90
2023-03-02T06:58:04.400Z,3.90
2023-03-02T06:59:04.417Z,4.20
2023-03-02T07:00:04.439Z,3.80
2023-03-02T07:01:04.588Z,3.70
2023-03-02T07:02:04.489Z,3.80
2023-03-02T07:03:04.488Z,3.90
2023-03-02T07:04:04.597Z,4.10
2023-03-02T07:05:04.512Z,4.20
2023-03-02T07:06:04.525Z,4.10
2023-03-02T07:07:04.551Z,4.10
2023-03-02T07:08:04.580Z,3.80
2023-03-02T07:09:04.593Z,4.00
2023-03-02T07:10:04.593Z,3.90
2023-03-02T07:11:04.603Z,3.80
2023-03-02T07:12:04.617Z,4.10
2023-03-02T07:13:04.641Z,4.20
2023-03-02T07:14:04.662Z,3.90
2023-03-02T07:15:04.676Z,4.10
2023-03-02T07:16:04.683Z,4.00
2023-03-02T07:17:04.795Z,4.10
2023-03-02T07:18:04.729Z,4.00
2023-03-02T07:19:04.730Z,4.00
2023-03-02T07:20:04.743Z,3.90
2023-03-02T07:21:04.764Z,4.10
2023-03-02T07:22:04.790Z,4.20
2023-03-02T07:23:04.799Z,4.20
2023-03-02T07:24:04.810Z,4.30
2023-03-02T07:25:04.834Z,4.20
2023-03-02T07:26:04.845Z,4.50
2023-03-02T07:27:04.857Z,4.00
2023-03-02T07:28:04.885Z,4.30
2023-03-02T07:29:04.888Z,4.30
2023-03-02T07:30:04.906Z,4.10
2023-03-02T07:31:05.043Z,4.10
2023-03-02T07:32:04.963Z,4.10
2023-03-02T07:33:04.962Z,4.50
2023-03-02T07:34:05.008Z,4.10
2023-03-02T07:35:04.989Z,4.20
2023-03-02T07:36:05.028Z,4.10
2023-03-02T07:37:05.017Z,4.30
2023-03-02T07:38:05.039Z,4.30
2023-03-02T07:39:05.059Z,4.20
2023-03-02T07:40:05.064Z,4.60
2023-03-02T07:41:05.088Z,4.40
2023-03-02T07:42:05.101Z,4.60
2023-03-02T07:43:05.106Z,4.70
2023-03-02T07:44:05.124Z,4.40
2023-03-02T07:45:05.148Z,4.40
2023-03-02T07:46:05.224Z,4.20
2023-03-02T07:47:05.178Z,4.30
2023-03-02T07:48:05.198Z,4.60
2023-03-02T07:49:05.209Z,4.50
2023-03-02T07:50:05.240Z,4.30
2023-03-02T07:51:05.245Z,4.20
2023-03-02T07:52:05.251Z,4.30
2023-03-02T07:53:05.279Z,4.50
2023-03-02T07:54:05.288Z,4.40
2023-03-02T07:55:05.303Z,4.20
2023-03-02T07:56:05.387Z,4.50
2023-03-02T07:57:05.328Z,4.30
2023-03-02T07:58:05.356Z,4.20
2023-03-02T07:59:05.368Z,4.20
2023-03-02T08:00:05.375Z,4.80
2023-03-02T08:01:05.405Z,4.30
2023-03-02T08:02:05.482Z,4.30
2023-03-02T08:03:05.560Z,4.60
2023-03-02T08:04:05.448Z,4.30
2023-03-02T08:05:05.470Z,4.60
2023-03-02T08:06:05.509Z,4.10
2023-03-02T08:07:05.494Z,4.40
2023-03-02T08:08:05.509Z,4.10
2023-03-02T08:09:05.525Z,4.40
2023-03-02T08:10:05.533Z,4.20
2023-03-02T08:11:05.551Z,4.00
2023-03-02T08:12:05.593Z,4.10
2023-03-02T08:13:05.583Z,4.20
2023-03-02T08:14:05.606Z,4.40
2023-03-02T08:15:05.636Z,4.40
2023-03-02T08:16:05.700Z,4.30
2023-03-02T08:17:05.651Z,4.30
2023-03-02T08:18:05.679Z,4.70
2023-03-02T08:19:05.690Z,4.20
2023-03-02T08:20:05.720Z,4.30
2023-03-02T08:21:05.717Z,4.40
2023-03-02T08:22:05.751Z,4.10
2023-03-02T08:23:05.742Z,4.30
2023-03-02T08:24:05.762Z,4.00
2023-03-02T08:25:05.780Z,4.10
2023-03-02T08:26:05.791Z,4.20
2023-03-02T08:27:05.812Z,4.50
2023-03-02T08:28:05.824Z,4.30
2023-03-02T08:29:05.844Z,4.40
2023-03-02T08:30:05.865Z,4.10
2023-03-02T08:31:05.924Z,4.10
2023-03-02T08:32:06.074Z,4.10
2023-03-02T08:33:07.224Z,4.20
2023-03-02T08:34:05.923Z,4.40
2023-03-02T08:35:05.934Z,4.20
2023-03-02T08:36:06.040Z,4.50
2023-03-02T08:37:05.963Z,4.20
2023-03-02T08:38:06.025Z,4.20
2023-03-02T08:39:05.996Z,4.10
2023-03-02T08:40:06.020Z,4.50
2023-03-02T08:41:06.032Z,4.00
2023-03-02T08:42:06.052Z,3.90
2023-03-02T08:43:08.101Z,4.30
2023-03-02T08:44:06.084Z,4.30
2023-03-02T08:45:06.087Z,4.30
2023-03-02T08:46:06.134Z,4.10
2023-03-02T08:47:06.125Z,4.00
2023-03-02T08:48:06.141Z,4.10
2023-03-02T08:49:06.155Z,4.10
2023-03-02T08:50:06.167Z,3.90
2023-03-02T08:51:06.188Z,4.00
2023-03-02T08:52:06.209Z,4.10
2023-03-02T08:53:06.216Z,4.00
2023-03-02T08:54:06.253Z,3.80
2023-03-02T08:55:06.339Z,4.00
2023-03-02T08:56:06.262Z,4.00
2023-03-02T08:57:06.277Z,4.30
2023-03-02T08:58:06.294Z,4.10
2023-03-02T08:59:06.313Z,3.90
2023-03-02T09:00:06.322Z,3.90
2023-03-02T09:01:06.362Z,4.10
2023-03-02T09:02:06.349Z,3.80
2023-03-02T09:03:06.364Z,4.30
2023-03-02T09:04:06.432Z,4.00
2023-03-02T09:05:06.395Z,3.70
2023-03-02T09:06:06.418Z,3.80
2023-03-02T09:07:06.432Z,3.80
2023-03-02T09:08:06.440Z,4.00
2023-03-02T09:09:06.469Z,4.00
2023-03-02T09:10:06.541Z,3.80
2023-03-02T09:11:06.494Z,4.00
2023-03-02T09:12:06.510Z,3.90
2023-03-02T09:13:08.428Z,3.90
2023-03-02T09:14:06.589Z,3.80
2023-03-02T09:15:06.551Z,3.90
2023-03-02T09:16:06.670Z,4.00
2023-03-02T09:17:06.598Z,3.70
2023-03-02T09:18:06.597Z,3.50
2023-03-02T09:19:06.622Z,3.80
2023-03-02T09:20:06.631Z,3.80
2023-03-02T09:21:06.652Z,3.50
2023-03-02T09:22:06.670Z,3.90
2023-03-02T09:23:06.688Z,3.90
2023-03-02T09:24:06.702Z,3.60
2023-03-02T09:25:06.716Z,3.80
2023-03-02T09:26:06.764Z,4.00
2023-03-02T09:27:06.757Z,4.00
2023-03-02T09:28:06.755Z,3.70
2023-03-02T09:29:06.783Z,3.70
2023-03-02T09:30:06.789Z,3.60
2023-03-02T09:31:06.814Z,3.80
2023-03-02T09:32:07.029Z,3.70
2023-03-02T09:33:06.912Z,3.60
2023-03-02T09:34:06.858Z,3.70
2023-03-02T09:35:06.871Z,3.80
2023-03-02T09:36:06.890Z,3.50
2023-03-02T09:37:06.904Z,3.90
2023-03-02T09:38:06.958Z,3.70
2023-03-02T09:39:06.935Z,3.80
2023-03-02T09:40:06.952Z,3.70
2023-03-02T09:41:06.976Z,3.40
2023-03-02T09:42:07.023Z,3.70
2023-03-02T09:43:07.004Z,3.50
2023-03-02T09:44:07.017Z,3.70
2023-03-02T09:45:07.032Z,3.80
2023-03-02T09:46:07.082Z,3.50
2023-03-02T09:47:07.056Z,3.40
2023-03-02T09:48:07.077Z,4.00
2023-03-02T09:49:07.093Z,3.60
2023-03-02T09:50:07.101Z,3.70
2023-03-02T09:51:07.126Z,3.70
2023-03-02T09:52:07.134Z,3.50
2023-03-02T09:53:07.148Z,3.60
2023-03-02T09:54:07.194Z,3.70
2023-03-02T09:55:07.183Z,3.90
2023-03-02T09:56:07.194Z,3.70
2023-03-02T09:57:07.218Z,3.60
2023-03-02T09:58:07.255Z,3.70
2023-03-02T09:59:07.252Z,3.60
2023-03-02T10:00:18.663Z,3.80
2023-03-02T10:01:07.280Z,3.80
2023-03-02T10:02:07.289Z,3.80
2023-03-02T10:03:16.629Z,3.90
2023-03-02T10:04:07.461Z,3.80
2023-03-02T10:05:07.334Z,3.60
2023-03-02T10:06:07.367Z,3.60
2023-03-02T10:07:07.373Z,3.70
2023-03-02T10:08:07.388Z,3.60
2023-03-02T10:09:07.404Z,3.70
2023-03-02T10:10:07.418Z,3.70
2023-03-02T10:11:07.439Z,3.60
2023-03-02T10:12:07.450Z,3.70
2023-03-02T10:13:07.459Z,3.80
2023-03-02T10:14:07.541Z,3.70
2023-03-02T10:15:07.498Z,3.50
2023-03-02T10:16:07.578Z,3.40
2023-03-02T10:17:07.521Z,3.60
2023-03-02T10:18:07.555Z,3.70
2023-03-02T10:19:07.575Z,3.50
2023-03-02T10:20:07.566Z,3.70
2023-03-02T10:21:07.625Z,3.50
2023-03-02T10:22:07.599Z,3.50
2023-03-02T10:23:07.624Z,3.60
2023-03-02T10:24:07.633Z,3.60
2023-03-02T10:25:07.662Z,3.50
2023-03-02T10:26:07.662Z,3.60
2023-03-02T10:27:07.693Z,3.50
2023-03-02T10:28:07.699Z,3.70
2023-03-02T10:29:07.715Z,3.60
2023-03-02T10:30:07.762Z,3.60
2023-03-02T10:31:07.849Z,3.40
2023-03-02T10:32:07.793Z,3.50
2023-03-02T10:33:07.796Z,3.40
2023-03-02T10:34:07.798Z,3.80
2023-03-02T10:35:08.004Z,3.60
2023-03-02T10:36:07.822Z,3.30
2023-03-02T10:37:07.831Z,3.40
2023-03-02T10:38:07.854Z,3.60
2023-03-02T10:39:07.899Z,3.70
2023-03-02T10:40:07.887Z,3.80
2023-03-02T10:41:07.893Z,3.70
2023-03-02T10:42:08.000Z,3.80
2023-03-02T10:43:07.933Z,3.60
2023-03-02T10:44:07.946Z,3.60
2023-03-02T10:45:07.968Z,3.50
2023-03-02T10:46:08.046Z,3.40
2023-03-02T10:47:07.994Z,3.50
2023-03-02T10:48:08.009Z,3.30
2023-03-02T10:49:08.018Z,3.60
2023-03-02T10:50:08.042Z,3.40
2023-03-02T10:51:08.049Z,3.60
2023-03-02T10:52:08.071Z,4.00
2023-03-02T10:53:08.081Z,3.60
2023-03-02T10:54:08.107Z,3.70
2023-03-02T10:55:08.125Z,3.30
2023-03-02T10:56:08.126Z,3.50
2023-03-02T10:57:08.142Z,3.70
2023-03-02T10:58:08.167Z,3.40
2023-03-02T10:59:08.175Z,3.50
2023-03-02T11:00:08.188Z,3.80
2023-03-02T11:01:08.214Z,3.70
2023-03-02T11:02:08.245Z,3.70
2023-03-02T11:03:08.235Z,3.70
2023-03-02T11:04:08.372Z,3.70
2023-03-02T11:05:08.275Z,3.60
2023-03-02T11:06:08.290Z,3.80
2023-03-02T11:07:08.300Z,3.90
2023-03-02T11:08:08.318Z,3.80
2023-03-02T11:09:08.329Z,3.80
2023-03-02T11:10:08.358Z,3.70
2023-03-02T11:11:08.374Z,3.90
2023-03-02T11:12:08.420Z,3.70
2023-03-02T11:13:08.400Z,3.80
2023-03-02T11:14:08.407Z,3.70
2023-03-02T11:15:08.425Z,3.80
2023-03-02T11:16:08.495Z,3.90
2023-03-02T11:17:08.453Z,3.80
2023-03-02T11:18:08.513Z,4.30
2023-03-02T11:19:08.498Z,3.60
2023-03-02T11:20:08.506Z,4.00
2023-03-02T11:21:08.519Z,3.70
2023-03-02T11:22:08.531Z,4.00
2023-03-02T11:23:08.548Z,3.70
2023-03-02T11:24:10.415Z,4.10
2023-03-02T11:25:08.591Z,3.80
2023-03-02T11:26:08.603Z,4.30
2023-03-02T11:27:08.612Z,4.10
2023-03-02T11:28:08.624Z,4.10
2023-03-02T11:29:08.644Z,3.80
2023-03-02T11:30:08.656Z,4.20
2023-03-02T11:31:08.806Z,4.50
2023-03-02T11:32:08.784Z,4.20
2023-03-02T11:33:08.736Z,4.10
2023-03-02T11:34:17.385Z,4.00
2023-03-02T11:35:08.731Z,4.30
2023-03-02T11:36:08.819Z,4.00
2023-03-02T11:37:08.781Z,4.20
2023-03-02T11:38:08.788Z,4.90
2023-03-02T11:39:08.797Z,4.40
2023-03-02T11:40:08.821Z,4.40
2023-03-02T11:41:08.836Z,4.30
2023-03-02T11:42:08.885Z,4.60
2023-03-02T11:43:08.866Z,4.50
2023-03-02T11:44:08.885Z,4.10
2023-03-02T11:45:08.891Z,4.00
2023-03-02T11:46:21.172Z,4.10
2023-03-02T11:47:09.006Z,4.00
2023-03-02T11:48:08.939Z,4.20
2023-03-02T11:49:08.954Z,3.80
2023-03-02T11:50:08.990Z,4.30
2023-03-02T11:51:08.993Z,4.70
2023-03-02T11:52:09.007Z,4.40
2023-03-02T11:53:09.029Z,4.60
2023-03-02T11:54:09.042Z,4.50
2023-03-02T11:55:09.050Z,4.30
2023-03-02T11:56:09.069Z,4.50
2023-03-02T11:57:09.088Z,4.30
2023-03-02T11:58:09.102Z,4.50
2023-03-02T11:59:09.119Z,4.40
2023-03-02T12:00:09.131Z,4.40
2023-03-02T12:01:09.192Z,4.60
2023-03-02T12:02:09.223Z,4.20
2023-03-02T12:03:09.196Z,4.00
2023-03-02T12:04:09.192Z,4.20
2023-03-02T12:05:09.260Z,4.30
2023-03-02T12:06:09.310Z,4.30
2023-03-02T12:07:09.235Z,4.30
2023-03-02T12:08:09.265Z,4.50
2023-03-02T12:09:09.303Z,4.30
2023-03-02T12:10:09.282Z,4.10
2023-03-02T12:11:09.306Z,4.20
2023-03-02T12:12:09.314Z,4.50
2023-03-02T12:13:09.331Z,4.60
2023-03-02T12:14:09.346Z,4.30
2023-03-02T12:15:09.363Z,4.10
2023-03-02T12:16:09.390Z,4.30
2023-03-02T12:17:09.397Z,4.10
2023-03-02T12:18:09.423Z,4.00
2023-03-02T12:19:09.426Z,4.40
2023-03-02T12:20:09.454Z,3.90
2023-03-02T12:21:09.465Z,4.70
2023-03-02T12:22:09.503Z,4.50
2023-03-02T12:23:09.494Z,4.30
2023-03-02T12:24:09.503Z,4.70
2023-03-02T12:25:09.529Z,4.20
2023-03-02T12:26:09.554Z,4.40
2023-03-02T12:27:09.550Z,4.10
2023-03-02T12:28:09.567Z,4.10
2023-03-02T12:29:09.631Z,4.10
2023-03-02T12:30:09.685Z,4.10
2023-03-02T12:31:09.707Z,4.10
2023-03-02T12:32:09.791Z,4.30
2023-03-02T12:33:09.648Z,4.10
2023-03-02T12:34:09.720Z,4.20
2023-03-02T12:35:09.683Z,4.30
2023-03-02T12:36:09.703Z,3.80
2023-03-02T12:37:09.716Z,4.00
2023-03-02T12:38:09.828Z,4.10
2023-03-02T12:39:09.754Z,4.10
2023-03-02T12:40:09.756Z,3.90
2023-03-02T12:41:09.781Z,3.90
2023-03-02T12:42:09.852Z,4.10
2023-03-02T12:43:09.851Z,4.00
2023-03-02T12:44:09.831Z,3.90
2023-03-02T12:45:09.841Z,3.90
2023-03-02T12:46:09.920Z,4.00
2023-03-02T12:47:10.013Z,4.00
2023-03-02T12:48:10.089Z,4.10
2023-03-02T12:49:10.912Z,4.40
2023-03-02T12:50:09.930Z,4.20
2023-03-02T12:51:09.967Z,4.20
2023-03-02T12:52:10.080Z,4.00
2023-03-02T12:53:09.961Z,4.50
2023-03-02T12:54:10.044Z,4.20
2023-03-02T12:55:10.008Z,4.40
2023-03-02T12:56:10.154Z,4.40
2023-03-02T12:57:10.032Z,4.40
2023-03-02T12:58:10.044Z,4.00
2023-03-02T12:59:10.060Z,3.90
2023-03-02T13:00:10.069Z,4.00
2023-03-02T13:01:10.169Z,4.00
2023-03-02T13:02:10.175Z,3.80
2023-03-02T13:03:10.115Z,3.80
2023-03-02T13:04:10.181Z,3.80
2023-03-02T13:05:10.350Z,4.00
2023-03-02T13:06:10.177Z,3.80
2023-03-02T13:07:10.190Z,4.00
2023-03-02T13:08:10.194Z,3.80
2023-03-02T13:09:10.271Z,3.90
2023-03-02T13:10:10.333Z,3.70
2023-03-02T13:11:10.248Z,3.70
2023-03-02T13:12:10.257Z,3.90
2023-03-02T13:13:10.285Z,3.60
2023-03-02T13:14:10.288Z,3.70
2023-03-02T13:15:10.311Z,3.50
2023-03-02T13:16:10.318Z,3.70
2023-03-02T13:17:10.333Z,3.40
2023-03-02T13:18:12.151Z,3.50
2023-03-02T13:19:10.385Z,3.60